Pays
Station

 

Conditions  météo  pour  Kodiak  -  Etats-Unis    Etats-Unis

  
8 °C
    
 
 

METAR pour Kodiak :

PADQ 142353Z 35007KT 10SM SCT024 OVC030 08/04 A2978 RMK AO2 SLP084 60000 T00830039 10094 20072 51018

 

Voici le bulletin pour Kodiak - Etats-Unis.
 
Le bulletin a été fait il y a 27 minutes, à 23:53 UTC .
Le vent soufflait à la vitesse de 3.6 mètres par seconde de Nord (350°).
 
La température était de 8 °C, avec un point de rosée à 4 °C.
La pression atmosphérique était de 1008 hPa.
L'humidité relative était de 75.8%.
 
Il y avait 3 à 4/8ème de nébulosité à une hauteur de 732 mètres. Le ciel était nuageux à partir d'une hauteur de 914 mètres
 
La visibilité globale était de 16.1 kilomètres.
 

 
 
 

Pays :   A   B   C   D   E   F   G   H   I   J   K   L   M   N   O   P   Q   R   S   T   U   V   W   Y   Z

 

Partenaires :  Info Météo avec Met'info
Météo Marine avec MeteoMarine.net
Infos Site  |  Infos Légales  |  Crédits  |  Confidentialité
Contactez-nous  |  Ajouter aux favoris
© 2013-2018 METAR - Tous droits réservés